Time;durP1;ratioP1;P1;durP2;ratioP2;P2;SDS_P1;SDS_P2;PMS_P1;PMS_P2;Temp;Humidity;BMP_temperature;BMP_pressure;BME280_temperature;BME280_humidity;BME280_pressure;Samples;Min_cycle;Max_cycle;Signal;HPM_P1;HPM_P2
2022/03/24 00:01:45;;;;;;;79.70;55.63;;;17.80;51.30;;;;;;5003979;28;95749;-88
2022/03/24 00:04:11;;;;;;;78.38;55.10;;;17.80;51.30;;;;;;4999944;28;90682;-89
2022/03/24 00:06:37;;;;;;;78.25;55.20;;;17.80;51.30;;;;;;5003722;28;89679;-89
2022/03/24 00:09:03;;;;;;;84.05;55.30;;;17.80;51.20;;;;;;4988826;28;93222;-89
2022/03/24 00:11:30;;;;;;;77.47;54.85;;;17.80;51.30;;;;;;5004394;28;92457;-89
2022/03/24 00:13:56;;;;;;;79.07;55.42;;;17.80;51.30;;;;;;4984509;28;93302;-89
2022/03/24 00:16:22;;;;;;;79.57;54.78;;;17.80;51.40;;;;;;5003619;28;90533;-89
2022/03/24 00:18:47;;;;;;;77.88;55.28;;;17.80;51.50;;;;;;4996589;28;89712;-89
2022/03/24 00:21:13;;;;;;;78.47;55.40;;;17.80;51.30;;;;;;5005135;28;91304;-89
2022/03/24 00:23:39;;;;;;;79.32;54.88;;;17.80;51.40;;;;;;5004169;28;91812;-89
2022/03/24 00:26:04;;;;;;;76.93;55.03;;;17.70;51.30;;;;;;5002855;28;90211;-89
2022/03/24 00:28:33;;;;;;;78.43;54.33;;;17.70;51.30;;;;;;5004213;28;89753;-89
2022/03/24 00:30:59;;;;;;;78.38;54.80;;;17.70;51.50;;;;;;4980001;28;89968;-89
2022/03/24 00:33:25;;;;;;;79.85;55.25;;;17.70;51.20;;;;;;5007602;28;90974;-89
2022/03/24 00:35:51;;;;;;;77.72;54.90;;;17.70;51.30;;;;;;5001232;28;91515;-89
2022/03/24 00:38:17;;;;;;;78.00;55.10;;;17.70;51.30;;;;;;5002163;28;88746;-89
2022/03/24 00:40:43;;;;;;;78.05;55.70;;;17.60;51.40;;;;;;5003994;28;90221;-89
2022/03/24 00:43:10;;;;;;;78.18;54.78;;;17.70;51.40;;;;;;5004639;28;91284;-88
2022/03/24 00:45:36;;;;;;;76.57;54.30;;;17.60;51.30;;;;;;5004383;28;90848;-88
2022/03/24 00:48:02;;;;;;;77.82;54.63;;;17.60;51.30;;;;;;5001225;28;89497;-88
2022/03/24 00:50:28;;;;;;;77.25;55.15;;;17.60;51.30;;;;;;5001465;28;90534;-88
2022/03/24 00:52:54;;;;;;;77.93;54.78;;;17.60;51.50;;;;;;5005998;28;90828;-88
2022/03/24 00:55:20;;;;;;;78.38;55.55;;;17.60;51.30;;;;;;4999025;28;90504;-88
2022/03/24 00:57:53;;;;;;;78.13;55.05;;;17.60;51.40;;;;;;5001102;28;89784;-89
2022/03/24 01:00:20;;;;;;;77.43;54.63;;;17.60;52.00;;;;;;4987989;28;91727;-88
2022/03/24 01:02:48;;;;;;;77.10;54.17;;;17.60;51.30;;;;;;5008733;28;90032;-88
2022/03/24 01:05:16;;;;;;;77.72;55.15;;;17.50;51.30;;;;;;5004546;28;90284;-89
2022/03/24 01:07:42;;;;;;;81.28;54.97;;;17.50;51.30;;;;;;4992375;28;89661;-88
2022/03/24 01:10:10;;;;;;;77.00;54.47;;;17.50;51.30;;;;;;4999895;28;91609;-89
2022/03/24 01:12:36;;;;;;;76.80;55.47;;;17.50;51.30;;;;;;4994567;28;95527;-89
2022/03/24 01:15:05;;;;;;;78.35;54.65;;;17.50;51.40;;;;;;5004456;28;90307;-89
2022/03/24 01:17:31;;;;;;;77.05;54.40;;;17.50;51.30;;;;;;4987920;28;90578;-89
2022/03/24 01:19:57;;;;;;;77.80;55.00;;;17.50;51.30;;;;;;5007121;28;90729;-89
2022/03/24 01:22:22;;;;;;;75.85;54.58;;;17.50;51.30;;;;;;5003770;28;90427;-88
2022/03/24 01:24:50;;;;;;;77.75;55.28;;;17.40;51.30;;;;;;5005671;28;90264;-87
2022/03/24 01:27:16;;;;;;;77.05;55.55;;;17.40;51.50;;;;;;5006588;28;89111;-87
2022/03/24 01:29:44;;;;;;;77.85;55.67;;;17.40;51.40;;;;;;5008010;28;89499;-87
2022/03/24 01:32:10;;;;;;;76.53;54.90;;;17.40;51.30;;;;;;4983078;28;94723;-87
2022/03/24 01:34:39;;;;;;;74.72;54.28;;;17.40;51.40;;;;;;4993797;28;91260;-87
2022/03/24 01:37:05;;;;;;;76.55;54.78;;;17.40;51.40;;;;;;5005318;28;89785;-87
2022/03/24 01:39:32;;;;;;;77.97;56.10;;;17.40;51.30;;;;;;5004851;28;90006;-87
2022/03/24 01:41:58;;;;;;;78.35;55.00;;;17.40;51.50;;;;;;5000105;28;90726;-87
2022/03/24 01:44:27;;;;;;;77.47;55.40;;;17.30;51.40;;;;;;5002467;28;89810;-88
2022/03/24 01:47:07;;;;;;;77.40;54.03;;;17.30;51.40;;;;;;4989661;28;90927;-87
2022/03/24 01:49:44;;;;;;;77.85;54.80;;;17.30;51.40;;;;;;5004200;28;90965;-88
2022/03/24 01:52:12;;;;;;;76.32;54.70;;;17.30;51.40;;;;;;4987053;28;94242;-88
2022/03/24 01:54:41;;;;;;;78.57;54.90;;;17.30;51.40;;;;;;4996457;28;89514;-87
2022/03/24 01:57:10;;;;;;;76.28;54.97;;;17.30;51.40;;;;;;5004334;28;89767;-87
2022/03/24 01:59:37;;;;;;;76.55;54.50;;;17.30;51.40;;;;;;4986253;28;93188;-87
2022/03/24 02:02:03;;;;;;;79.97;55.25;;;17.30;51.40;;;;;;4998260;28;90940;-87
2022/03/24 02:04:30;;;;;;;76.20;54.38;;;17.30;51.50;;;;;;4996192;28;89656;-87
2022/03/24 02:06:56;;;;;;;76.45;55.35;;;17.30;51.40;;;;;;4986719;28;89550;-87
2022/03/24 02:09:22;;;;;;;76.97;55.42;;;17.30;51.40;;;;;;4990158;28;92281;-87
2022/03/24 02:11:48;;;;;;;76.80;54.28;;;17.20;51.50;;;;;;4982031;28;95405;-87
2022/03/24 02:14:14;;;;;;;75.75;54.90;;;17.20;51.40;;;;;;4986720;28;91897;-87
2022/03/24 02:16:41;;;;;;;79.03;55.22;;;17.20;51.50;;;;;;4997429;28;89756;-87
2022/03/24 02:19:21;;;;;;;75.97;54.50;;;17.20;51.50;;;;;;4996828;28;90008;-87
2022/03/24 02:21:48;;;;;;;76.82;55.00;;;17.20;51.40;;;;;;4976385;28;92079;-87
2022/03/24 02:24:16;;;;;;;77.60;55.38;;;17.20;52.00;;;;;;5005045;28;90938;-86
2022/03/24 02:26:44;;;;;;;76.35;54.33;;;17.20;51.50;;;;;;4995894;28;91125;-86
2022/03/24 02:29:11;;;;;;;76.93;54.83;;;17.20;51.50;;;;;;4987111;28;94158;-87
2022/03/24 02:31:43;;;;;;;77.40;54.83;;;17.20;51.40;;;;;;5001638;28;93122;-87
2022/03/24 02:37:02;;;;;;;75.60;54.35;;;17.20;51.40;;;;;;4998186;28;90145;-87
2022/03/24 02:39:28;;;;;;;74.25;54.30;;;17.10;51.20;;;;;;5005743;28;91327;-87
2022/03/24 02:41:56;;;;;;;75.82;54.63;;;17.10;51.30;;;;;;5002822;28;90568;-87
2022/03/24 02:44:23;;;;;;;74.65;54.42;;;17.10;51.40;;;;;;5008146;28;90147;-87
2022/03/24 02:46:51;;;;;;;74.70;54.25;;;17.10;51.40;;;;;;5000131;28;89729;-87
2022/03/24 02:49:18;;;;;;;76.55;54.88;;;17.10;51.40;;;;;;5001130;28;91061;-87
2022/03/24 02:51:44;;;;;;;76.55;54.65;;;17.10;51.50;;;;;;4999561;28;92949;-86
2022/03/24 02:54:11;;;;;;;76.63;54.80;;;17.10;51.50;;;;;;4988192;28;92235;-87
2022/03/24 02:56:38;;;;;;;76.38;54.53;;;17.10;51.60;;;;;;5006845;28;89952;-87
2022/03/24 02:59:05;;;;;;;75.70;54.53;;;17.10;51.40;;;;;;5005278;28;89893;-87
2022/03/24 03:01:33;;;;;;;76.30;54.28;;;17.10;51.40;;;;;;5007235;28;95545;-87
2022/03/24 03:03:59;;;;;;;76.38;55.20;;;17.10;51.40;;;;;;4987106;28;89543;-87
2022/03/24 03:06:25;;;;;;;77.47;55.05;;;17.10;51.50;;;;;;4990615;28;88937;-86
2022/03/24 03:08:50;;;;;;;77.38;54.88;;;17.10;51.30;;;;;;4987803;28;94443;-86
2022/03/24 03:11:16;;;;;;;75.20;53.88;;;17.20;51.40;;;;;;4988182;28;93194;-86
2022/03/24 03:13:43;;;;;;;78.15;55.45;;;17.20;51.40;;;;;;4985541;28;92040;-86
2022/03/24 03:16:09;;;;;;;78.53;54.75;;;17.30;51.40;;;;;;5009426;28;89642;-86
2022/03/24 03:18:34;;;;;;;77.80;56.08;;;17.30;51.30;;;;;;4997617;28;90049;-86
2022/03/24 03:21:00;;;;;;;76.25;54.90;;;17.30;51.10;;;;;;4983872;28;92469;-86
2022/03/24 03:23:26;;;;;;;78.40;54.97;;;17.30;51.00;;;;;;5006589;28;89788;-87
2022/03/24 03:25:52;;;;;;;76.30;54.75;;;17.30;51.10;;;;;;5000696;28;90728;-86
2022/03/24 03:28:18;;;;;;;76.88;54.90;;;17.40;51.00;;;;;;4986083;28;93292;-87
2022/03/24 03:30:44;;;;;;;75.50;54.05;;;17.40;50.80;;;;;;4989523;28;89992;-86
2022/03/24 03:33:10;;;;;;;76.30;55.58;;;17.40;50.70;;;;;;5008131;28;89660;-86
2022/03/24 03:35:37;;;;;;;76.85;54.80;;;17.40;50.80;;;;;;5005880;28;91130;-86
2022/03/24 03:38:03;;;;;;;75.65;54.25;;;17.40;50.80;;;;;;5009594;28;91307;-86
2022/03/24 03:40:29;;;;;;;75.63;54.40;;;17.40;50.80;;;;;;5002146;28;89773;-86
2022/03/24 03:42:54;;;;;;;75.07;54.38;;;17.50;50.60;;;;;;4999679;28;90630;-86
2022/03/24 03:45:20;;;;;;;78.10;54.97;;;17.40;50.50;;;;;;4986147;28;90586;-87
2022/03/24 03:47:46;;;;;;;75.85;54.72;;;17.40;50.50;;;;;;5005485;28;93211;-87
2022/03/24 03:50:11;;;;;;;75.15;54.20;;;17.40;50.50;;;;;;5005250;28;91562;-86
2022/03/24 03:52:37;;;;;;;78.07;54.85;;;17.40;50.50;;;;;;5008900;28;94976;-86
2022/03/24 03:55:04;;;;;;;77.03;53.83;;;17.40;50.30;;;;;;5003337;28;89099;-86
2022/03/24 03:57:29;;;;;;;77.32;55.50;;;17.40;50.30;;;;;;4999600;28;90871;-87
2022/03/24 03:59:55;;;;;;;75.90;54.35;;;17.40;50.50;;;;;;5003418;28;91800;-86
2022/03/24 04:02:21;;;;;;;74.70;54.30;;;17.40;50.40;;;;;;5002479;28;90515;-86
2022/03/24 04:04:47;;;;;;;77.72;55.03;;;17.40;50.50;;;;;;5006577;28;89590;-86
2022/03/24 04:07:12;;;;;;;79.88;55.42;;;17.40;50.50;;;;;;5013604;28;90593;-87
2022/03/24 04:09:38;;;;;;;79.05;54.80;;;17.40;50.60;;;;;;4993891;28;93455;-87
2022/03/24 04:12:06;;;;;;;76.10;54.63;;;17.30;50.20;;;;;;5005308;28;89806;-87
2022/03/24 04:14:32;;;;;;;77.15;54.85;;;17.30;50.40;;;;;;5001130;28;89979;-87
2022/03/24 04:16:58;;;;;;;77.85;55.30;;;17.30;50.40;;;;;;5002082;28;89950;-87
2022/03/24 04:19:25;;;;;;;79.10;54.78;;;17.30;50.40;;;;;;4996947;28;90035;-87
2022/03/24 04:21:51;;;;;;;80.60;56.53;;;17.30;50.50;;;;;;5002390;28;90044;-87
2022/03/24 04:24:17;;;;;;;75.78;55.05;;;17.30;50.40;;;;;;5000598;28;89676;-87
2022/03/24 04:26:42;;;;;;;78.25;54.90;;;17.30;50.30;;;;;;4997745;28;93013;-86
2022/03/24 04:29:08;;;;;;;78.22;55.60;;;17.30;50.30;;;;;;5003246;28;89872;-87
2022/03/24 04:31:34;;;;;;;77.72;55.20;;;17.30;50.50;;;;;;5003297;28;89758;-87
2022/03/24 04:34:00;;;;;;;75.70;54.53;;;17.20;50.50;;;;;;5002086;28;91754;-87
2022/03/24 04:36:26;;;;;;;75.40;54.65;;;17.20;50.50;;;;;;4988745;28;90794;-87
2022/03/24 04:38:52;;;;;;;74.53;54.22;;;17.20;50.50;;;;;;4990535;28;91900;-87
2022/03/24 04:41:18;;;;;;;77.00;55.78;;;17.20;50.40;;;;;;5004201;28;90713;-87
2022/03/24 04:43:43;;;;;;;75.50;54.70;;;17.20;50.50;;;;;;5008456;28;88695;-86
2022/03/24 04:46:09;;;;;;;80.95;55.10;;;17.10;50.40;;;;;;5002729;28;90666;-87
2022/03/24 04:48:38;;;;;;;75.93;55.08;;;17.10;50.30;;;;;;5000865;28;90862;-87
2022/03/24 04:51:07;;;;;;;77.97;55.03;;;17.10;50.40;;;;;;4986768;28;91001;-87
2022/03/24 04:53:33;;;;;;;78.82;55.35;;;17.10;50.50;;;;;;5000466;28;91655;-87
2022/03/24 04:55:59;;;;;;;80.03;55.13;;;17.10;50.70;;;;;;4997234;28;91055;-86
2022/03/24 04:58:24;;;;;;;78.30;55.05;;;17.10;50.50;;;;;;5002538;28;90690;-87
2022/03/24 05:00:50;;;;;;;78.55;55.25;;;17.10;50.70;;;;;;5002097;28;89473;-87
2022/03/24 05:03:16;;;;;;;76.45;54.58;;;17.00;50.40;;;;;;5004696;28;90035;-87
2022/03/24 05:05:41;;;;;;;76.60;55.10;;;17.00;50.60;;;;;;5003194;28;90662;-86
2022/03/24 05:08:07;;;;;;;80.82;54.40;;;17.00;50.70;;;;;;4996769;28;90728;-87
2022/03/24 05:10:33;;;;;;;76.93;55.08;;;17.00;51.40;;;;;;5002912;28;89429;-86
2022/03/24 05:12:58;;;;;;;79.70;54.33;;;17.10;51.10;;;;;;5001046;28;90735;-86
2022/03/24 05:15:24;;;;;;;77.50;54.60;;;17.20;51.10;;;;;;5007422;28;90727;-86
2022/03/24 05:17:51;;;;;;;77.43;54.30;;;17.30;51.10;;;;;;4997835;28;90371;-86
2022/03/24 05:20:17;;;;;;;77.60;54.60;;;17.40;51.00;;;;;;4997284;28;89742;-86
2022/03/24 05:22:42;;;;;;;78.07;55.17;;;17.50;50.90;;;;;;5002869;28;89666;-86
2022/03/24 05:25:08;;;;;;;76.82;54.83;;;17.60;50.60;;;;;;5001859;28;90746;-86
2022/03/24 05:27:34;;;;;;;76.90;54.67;;;17.60;50.50;;;;;;5003318;28;91365;-86
2022/03/24 05:29:59;;;;;;;76.72;54.78;;;17.80;50.50;;;;;;4999440;28;90228;-86
2022/03/24 05:32:26;;;;;;;77.55;54.25;;;17.80;50.30;;;;;;5006792;28;88731;-86
2022/03/24 05:34:52;;;;;;;76.75;54.30;;;17.90;50.20;;;;;;5004199;28;90773;-87
2022/03/24 05:37:18;;;;;;;79.13;55.90;;;17.90;50.10;;;;;;5001548;28;90202;-86
2022/03/24 05:39:44;;;;;;;76.35;53.63;;;18.00;49.90;;;;;;5002396;28;91534;-86
2022/03/24 05:42:09;;;;;;;77.03;55.42;;;18.00;49.80;;;;;;5002556;28;90337;-86
2022/03/24 05:44:36;;;;;;;75.95;54.13;;;18.10;49.80;;;;;;5003237;28;90383;-85
2022/03/24 05:47:02;;;;;;;77.35;55.50;;;18.20;49.70;;;;;;5005603;28;90800;-86
2022/03/24 05:49:28;;;;;;;75.93;54.08;;;18.20;49.60;;;;;;4979325;28;90478;-86
2022/03/24 05:51:53;;;;;;;76.18;54.88;;;18.30;49.60;;;;;;5000643;28;91357;-86
2022/03/24 05:54:19;;;;;;;74.10;53.65;;;18.30;49.40;;;;;;5000241;28;91014;-86
2022/03/24 05:56:46;;;;;;;75.47;53.67;;;18.30;49.30;;;;;;5005056;28;89549;-85
2022/03/24 05:59:12;;;;;;;77.75;54.85;;;18.40;49.30;;;;;;5005406;28;90801;-86
2022/03/24 06:01:39;;;;;;;77.30;54.55;;;18.40;49.10;;;;;;4996612;28;89842;-85
2022/03/24 06:04:05;;;;;;;76.15;54.42;;;18.50;49.10;;;;;;4983153;28;92374;-84
2022/03/24 06:06:34;;;;;;;81.93;55.45;;;18.50;49.00;;;;;;5002901;28;90299;-83
2022/03/24 06:09:02;;;;;;;81.57;56.38;;;18.60;49.30;;;;;;5002560;28;89925;-84
2022/03/24 06:11:28;;;;;;;81.38;56.35;;;18.60;49.40;;;;;;4998999;28;91120;-84
2022/03/24 06:13:53;;;;;;;83.25;56.60;;;18.70;49.70;;;;;;4999410;28;90353;-84
2022/03/24 06:16:19;;;;;;;86.57;56.55;;;18.70;49.50;;;;;;4999392;28;91024;-84
2022/03/24 06:18:45;;;;;;;83.55;56.75;;;18.70;49.50;;;;;;5002317;28;94850;-84
2022/03/24 06:21:11;;;;;;;82.22;56.47;;;18.80;49.50;;;;;;5000703;28;89178;-84
2022/03/24 06:23:36;;;;;;;84.53;56.90;;;18.80;49.60;;;;;;5005334;28;89802;-84
2022/03/24 06:26:03;;;;;;;83.13;56.90;;;18.80;49.70;;;;;;4997393;28;91816;-84
2022/03/24 06:28:29;;;;;;;79.40;56.90;;;18.90;49.60;;;;;;5001543;28;91752;-84
2022/03/24 06:30:55;;;;;;;80.72;55.85;;;18.90;49.60;;;;;;5004425;28;90082;-83
2022/03/24 06:33:21;;;;;;;88.05;58.60;;;18.90;49.60;;;;;;4998008;28;91656;-90
2022/03/24 06:35:48;;;;;;;102.38;60.42;;;19.00;50.00;;;;;;4997807;28;90807;-89
2022/03/24 06:38:14;;;;;;;104.07;61.28;;;19.00;50.50;;;;;;5001283;28;89924;-88
2022/03/24 06:40:40;;;;;;;102.07;62.10;;;19.00;50.10;;;;;;5000326;28;90942;-87
2022/03/24 06:43:08;;;;;;;105.47;61.63;;;19.00;49.80;;;;;;4987315;28;94108;-87
2022/03/24 06:45:34;;;;;;;106.70;61.95;;;19.00;49.80;;;;;;5002257;28;90938;-87
2022/03/24 06:48:01;;;;;;;102.00;61.78;;;19.00;49.70;;;;;;5004036;28;90094;-85
2022/03/24 06:50:27;;;;;;;100.53;60.88;;;19.10;49.60;;;;;;5000933;28;90735;-87
2022/03/24 06:52:53;;;;;;;99.65;61.42;;;19.10;49.50;;;;;;4994174;28;94160;-87
2022/03/24 06:55:19;;;;;;;98.50;61.15;;;19.10;49.40;;;;;;4990706;28;93774;-88
2022/03/24 06:57:45;;;;;;;96.03;61.38;;;19.20;49.30;;;;;;4997838;28;90173;-88
2022/03/24 07:00:12;;;;;;;104.13;61.22;;;19.20;49.10;;;;;;4963244;28;89665;-89
2022/03/24 07:02:38;;;;;;;98.53;60.75;;;19.20;49.00;;;;;;4987879;28;90743;-87
2022/03/24 07:05:04;;;;;;;93.05;60.70;;;19.30;49.00;;;;;;4992521;28;89625;-88
2022/03/24 07:07:30;;;;;;;92.07;60.75;;;19.30;48.80;;;;;;4979450;28;89309;-88
2022/03/24 07:09:55;;;;;;;91.97;60.55;;;19.30;48.70;;;;;;4971383;28;88707;-89
2022/03/24 07:12:22;;;;;;;93.30;60.38;;;19.30;48.60;;;;;;4986644;28;89333;-89
2022/03/24 07:14:48;;;;;;;90.80;60.22;;;19.30;48.50;;;;;;4983203;28;89830;-88
2022/03/24 07:17:14;;;;;;;89.60;59.60;;;19.30;48.50;;;;;;4983736;28;90294;-89
2022/03/24 07:19:40;;;;;;;91.60;59.28;;;19.30;48.40;;;;;;4965632;28;90705;-88
2022/03/24 07:22:06;;;;;;;90.60;59.15;;;19.40;48.40;;;;;;4966215;28;92541;-88
2022/03/24 07:24:31;;;;;;;89.15;58.65;;;19.40;48.30;;;;;;4984110;28;90574;-88
2022/03/24 07:26:57;;;;;;;84.07;57.92;;;19.40;48.30;;;;;;4988872;28;90457;-88
2022/03/24 07:29:24;;;;;;;86.10;57.50;;;19.40;48.30;;;;;;4983944;28;89522;-89
2022/03/24 07:31:50;;;;;;;88.65;58.15;;;19.40;48.10;;;;;;4976391;28;91817;-89
2022/03/24 07:34:16;;;;;;;87.97;57.90;;;19.50;48.00;;;;;;4968920;28;91902;-90
2022/03/24 07:36:43;;;;;;;109.25;63.75;;;19.50;47.80;;;;;;4968818;28;90225;-92
2022/03/24 07:39:09;;;;;;;98.43;61.92;;;19.50;48.70;;;;;;4979237;28;90436;-89
2022/03/24 07:41:35;;;;;;;104.65;64.57;;;19.60;49.30;;;;;;4980483;28;91879;-90
2022/03/24 07:44:01;;;;;;;109.18;63.80;;;19.70;49.60;;;;;;4980689;28;91272;-90
2022/03/24 07:46:27;;;;;;;102.78;63.53;;;19.70;49.90;;;;;;4986385;28;90831;-90
2022/03/24 07:48:53;;;;;;;107.65;63.72;;;19.80;50.10;;;;;;4979230;28;90360;-88
2022/03/24 07:51:19;;;;;;;103.30;64.93;;;19.80;50.40;;;;;;4968742;28;92315;-90
2022/03/24 07:53:48;;;;;;;101.53;62.20;;;19.90;50.30;;;;;;4974323;28;92517;-91
2022/03/24 07:56:20;;;;;;;102.88;62.22;;;19.80;50.40;;;;;;4981346;28;90164;-88
2022/03/24 07:58:46;;;;;;;99.07;62.85;;;19.90;50.40;;;;;;4985807;28;89261;-89
2022/03/24 08:01:12;;;;;;;105.28;62.28;;;19.90;50.30;;;;;;4982875;28;90511;-87
2022/03/24 08:03:38;;;;;;;101.47;63.58;;;19.90;50.00;;;;;;4962575;28;93877;-90
2022/03/24 08:06:04;;;;;;;102.13;62.63;;;19.90;50.10;;;;;;4981759;28;91058;-89
2022/03/24 08:08:35;;;;;;;102.43;62.33;;;19.90;49.90;;;;;;4964017;28;89543;-90
2022/03/24 08:11:01;;;;;;;106.80;62.58;;;19.90;50.00;;;;;;4965315;28;93391;-90
2022/03/24 08:13:27;;;;;;;104.00;62.30;;;20.00;50.10;;;;;;4980247;28;90677;-91
2022/03/24 08:15:54;;;;;;;96.43;62.20;;;20.00;50.00;;;;;;4986581;28;89750;-91
2022/03/24 08:18:20;;;;;;;103.03;61.63;;;20.10;50.10;;;;;;4969559;28;90012;-91
2022/03/24 08:20:51;;;;;;;97.63;61.53;;;20.10;50.00;;;;;;4983537;28;90587;-90
2022/03/24 08:23:17;;;;;;;;;;;20.10;49.90;;;;;;4968458;28;94142;-90
2022/03/24 08:25:44;;;;;;;100.68;62.00;;;20.10;50.10;;;;;;4972487;28;90005;-91
2022/03/24 08:28:12;;;;;;;94.70;61.05;;;20.10;49.90;;;;;;4989767;28;89467;-90
2022/03/24 08:30:38;;;;;;;96.28;60.15;;;20.10;49.80;;;;;;4985621;28;93454;-88
2022/03/24 08:33:05;;;;;;;94.22;61.13;;;20.10;49.80;;;;;;4983355;28;90663;-89
2022/03/24 08:35:32;;;;;;;95.63;60.85;;;20.20;49.70;;;;;;4983660;28;89943;-90
2022/03/24 08:37:59;;;;;;;93.47;60.40;;;20.20;49.60;;;;;;4985671;28;92614;-90
2022/03/24 08:40:25;;;;;;;90.80;59.65;;;20.20;49.40;;;;;;4978659;28;90111;-92
2022/03/24 08:42:51;;;;;;;93.72;60.67;;;20.20;50.10;;;;;;4987968;28;89425;-91
2022/03/24 08:45:17;;;;;;;97.00;62.13;;;20.20;49.30;;;;;;4997028;28;88699;-92
2022/03/24 08:47:43;;;;;;;93.82;60.63;;;20.30;49.30;;;;;;4987344;28;89023;-88
2022/03/24 08:50:10;;;;;;;96.45;61.00;;;20.30;49.20;;;;;;4984916;28;90592;-90
2022/03/24 08:52:36;;;;;;;95.72;60.38;;;20.30;49.20;;;;;;4968189;28;92854;-91
2022/03/24 08:55:06;;;;;;;93.78;60.22;;;20.30;49.30;;;;;;4978284;28;90838;-91
2022/03/24 08:57:34;;;;;;;100.85;60.20;;;20.30;49.00;;;;;;4980427;28;94597;-91
2022/03/24 09:00:07;;;;;;;95.97;60.30;;;20.30;48.90;;;;;;4980545;28;90138;-90
2022/03/24 09:02:33;;;;;;;91.63;59.83;;;20.30;49.00;;;;;;4980886;28;94043;-91
2022/03/24 09:04:58;;;;;;;93.78;60.45;;;20.30;48.80;;;;;;4992858;28;89136;-91
2022/03/24 09:07:24;;;;;;;91.95;60.50;;;20.30;48.70;;;;;;4983007;28;89499;-91
2022/03/24 09:09:50;;;;;;;94.40;59.28;;;20.30;48.60;;;;;;4968101;28;91767;-90
2022/03/24 09:12:16;;;;;;;92.85;60.70;;;20.30;48.40;;;;;;4976542;28;92351;-90
2022/03/24 09:14:42;;;;;;;92.10;60.35;;;20.30;48.30;;;;;;4984867;28;89910;-90
2022/03/24 09:17:08;;;;;;;94.28;61.67;;;20.30;48.50;;;;;;4985917;28;90406;-90
2022/03/24 09:19:35;;;;;;;94.53;61.25;;;20.30;48.30;;;;;;4978677;28;90935;-88
2022/03/24 09:22:04;;;;;;;93.50;61.38;;;20.30;48.50;;;;;;4989844;28;90716;-88
2022/03/24 09:24:29;;;;;;;92.28;60.58;;;20.40;48.80;;;;;;4987113;28;90167;-89
2022/03/24 09:26:55;;;;;;;88.53;60.28;;;20.40;48.90;;;;;;4970650;28;89809;-88
2022/03/24 09:29:22;;;;;;;93.28;60.72;;;20.40;49.00;;;;;;4985161;28;90083;-88
2022/03/24 09:31:48;;;;;;;97.63;59.88;;;20.40;49.00;;;;;;4985639;28;89691;-90
2022/03/24 09:34:14;;;;;;;92.15;60.22;;;20.40;49.00;;;;;;4989128;28;89653;-88
2022/03/24 09:36:41;;;;;;;93.90;60.03;;;20.40;48.80;;;;;;4976893;28;89697;-88
2022/03/24 09:39:08;;;;;;;97.90;59.97;;;20.40;48.90;;;;;;4989479;28;90006;-90
2022/03/24 09:41:35;;;;;;;97.50;61.00;;;20.40;48.90;;;;;;4988426;28;90802;-88
2022/03/24 09:44:01;;;;;;;92.38;60.45;;;20.40;49.20;;;;;;4989682;28;90675;-90
2022/03/24 09:46:28;;;;;;;88.68;58.60;;;20.50;49.20;;;;;;4998347;28;89397;-90
2022/03/24 09:48:54;;;;;;;90.53;59.38;;;20.50;49.30;;;;;;4984548;28;90629;-90
2022/03/24 09:51:22;;;;;;;90.47;61.40;;;20.50;49.20;;;;;;4985074;28;90528;-90
2022/03/24 09:53:49;;;;;;;92.53;61.42;;;20.60;49.20;;;;;;4968237;28;89916;-91
2022/03/24 09:56:15;;;;;;;88.45;59.30;;;20.60;49.20;;;;;;4990355;28;89394;-90
2022/03/24 09:58:44;;;;;;;92.35;60.75;;;20.60;49.20;;;;;;4981763;28;92096;-91
2022/03/24 10:01:10;;;;;;;94.60;60.72;;;20.60;49.20;;;;;;4985722;28;92830;-90
2022/03/24 10:03:36;;;;;;;92.40;59.80;;;20.60;49.20;;;;;;5004570;28;90038;-90
2022/03/24 10:06:06;;;;;;;86.40;59.33;;;20.60;48.90;;;;;;5000962;28;89705;-89
2022/03/24 10:08:32;;;;;;;91.57;60.25;;;20.60;49.00;;;;;;5005936;28;91166;-91
2022/03/24 10:11:04;;;;;;;95.70;60.33;;;20.60;49.00;;;;;;5007600;28;90308;-90
2022/03/24 10:13:49;;;;;;;88.60;59.83;;;20.60;48.80;;;;;;4997489;28;90432;-90
2022/03/24 10:16:37;;;;;;;87.78;59.55;;;20.70;49.20;;;;;;4983347;28;90180;-90
2022/03/24 10:19:10;;;;;;;88.05;60.45;;;20.70;49.10;;;;;;4983535;28;92063;-89
2022/03/24 10:21:40;;;;;;;89.07;58.90;;;20.70;49.20;;;;;;4983369;28;91055;-90
2022/03/24 10:24:15;;;;;;;90.30;59.33;;;20.80;49.20;;;;;;4987659;28;90129;-88
2022/03/24 10:26:51;;;;;;;90.53;60.13;;;20.80;49.20;;;;;;4976538;28;90245;-92
2022/03/24 10:29:17;;;;;;;90.90;58.60;;;20.80;49.10;;;;;;4967145;28;92146;-91
2022/03/24 10:31:44;;;;;;;85.53;58.75;;;20.80;49.30;;;;;;4990216;28;90441;-90
2022/03/24 10:34:12;;;;;;;86.25;58.20;;;20.80;49.30;;;;;;4996885;28;90937;-90
2022/03/24 10:36:58;;;;;;;87.53;58.88;;;20.90;49.30;;;;;;4993244;28;90265;-91
2022/03/24 10:39:26;;;;;;;88.85;59.30;;;20.90;49.20;;;;;;4989624;28;90461;-90
2022/03/24 10:41:52;;;;;;;85.20;58.55;;;20.90;49.00;;;;;;4978059;28;92137;-89
2022/03/24 10:44:18;;;;;;;89.20;58.83;;;20.90;48.90;;;;;;5000303;28;89517;-90
2022/03/24 10:46:45;;;;;;;85.93;58.58;;;20.90;48.80;;;;;;4999231;28;89791;-90
2022/03/24 10:49:23;;;;;;;98.45;58.63;;;20.90;48.50;;;;;;5004068;28;90276;-90
2022/03/24 10:51:50;;;;;;;88.20;60.35;;;20.90;48.40;;;;;;4973963;28;92161;-91
2022/03/24 10:54:37;;;;;;;86.68;58.95;;;20.90;48.90;;;;;;4999503;28;89710;-92
2022/03/24 10:57:07;;;;;;;87.38;59.20;;;20.90;48.10;;;;;;4991085;28;89754;-91
2022/03/24 10:59:41;;;;;;;84.07;59.45;;;20.90;48.20;;;;;;4992249;28;93194;-92
2022/03/24 11:02:08;;;;;;;85.63;58.85;;;20.90;48.10;;;;;;4999538;28;91115;-91
2022/03/24 11:04:35;;;;;;;83.45;58.42;;;21.00;48.20;;;;;;4975714;28;90450;-92
2022/03/24 11:07:00;;;;;;;85.40;58.65;;;21.00;48.20;;;;;;5001397;28;90007;-92
2022/03/24 11:09:28;;;;;;;99.95;58.47;;;21.00;48.10;;;;;;4994093;28;91086;-91
2022/03/24 11:12:30;;;;;;;86.60;58.33;;;21.00;48.30;;;;;;4993787;28;91344;-90
2022/03/24 11:14:59;;;;;;;84.78;58.22;;;21.00;48.20;;;;;;4997467;28;90458;-91
2022/03/24 11:17:27;;;;;;;86.85;58.67;;;21.00;48.20;;;;;;4999784;28;88587;-91
2022/03/24 11:20:04;;;;;;;85.55;58.65;;;21.00;48.10;;;;;;4974590;28;90884;-91
2022/03/24 11:22:48;;;;;;;83.38;57.88;;;21.00;48.00;;;;;;4999117;28;90766;-91
2022/03/24 11:25:15;;;;;;;83.47;57.60;;;21.10;48.00;;;;;;4994987;28;90584;-90
2022/03/24 11:27:40;;;;;;;87.55;58.90;;;21.00;47.90;;;;;;4975291;28;90005;-91
2022/03/24 11:30:08;;;;;;;83.03;58.15;;;21.10;47.80;;;;;;4988888;28;91027;-91
2022/03/24 11:32:36;;;;;;;85.70;58.80;;;21.10;47.80;;;;;;4972708;28;96432;-90
2022/03/24 11:35:06;;;;;;;84.82;57.67;;;21.10;47.80;;;;;;4976629;28;89887;-91
2022/03/24 11:37:32;;;;;;;84.95;57.65;;;21.10;47.80;;;;;;4996049;28;91470;-90
2022/03/24 11:40:00;;;;;;;84.72;57.88;;;21.10;47.70;;;;;;4994729;28;90897;-90
2022/03/24 11:42:26;;;;;;;84.13;57.95;;;21.10;47.70;;;;;;5001455;28;90298;-91
2022/03/24 11:45:03;;;;;;;86.20;58.17;;;21.10;47.60;;;;;;5002737;28;89874;-91
2022/03/24 11:47:49;;;;;;;84.25;57.72;;;21.10;47.60;;;;;;4998536;28;89449;-91
2022/03/24 11:50:17;;;;;;;83.68;57.72;;;21.10;47.50;;;;;;4993976;28;92150;-91
2022/03/24 11:52:56;;;;;;;;;;;;;;;;;;;;;
2022/03/24 11:55:23;;;;;;;85.40;57.70;;;21.10;47.40;;;;;;4996102;28;114173;-91
2022/03/24 11:58:01;;;;;;;87.55;58.22;;;21.10;47.40;;;;;;4982177;28;89521;-90
2022/03/24 12:00:27;;;;;;;84.00;57.83;;;21.10;47.40;;;;;;4998818;28;91816;-91
2022/03/24 12:02:53;;;;;;;84.15;58.10;;;21.10;47.40;;;;;;4976376;28;91905;-91
2022/03/24 12:05:19;;;;;;;85.55;59.10;;;21.20;47.40;;;;;;4981389;28;90699;-91
2022/03/24 12:07:44;;;;;;;85.22;58.60;;;21.20;47.20;;;;;;4999519;28;88706;-91
2022/03/24 12:10:28;;;;;;;84.22;58.00;;;21.10;47.20;;;;;;4995582;28;89524;-90
2022/03/24 12:13:21;;;;;;;82.72;57.35;;;21.20;47.20;;;;;;4977121;28;94574;-90
2022/03/24 12:16:21;;;;;;;84.63;58.75;;;21.20;47.30;;;;;;4993759;28;92275;-91
2022/03/24 12:18:47;;;;;;;81.10;56.80;;;21.20;47.20;;;;;;4975316;28;90574;-91
2022/03/24 12:21:27;;;;;;;82.40;56.95;;;21.20;47.20;;;;;;4972038;28;93069;-90
2022/03/24 12:24:04;;;;;;;81.72;56.75;;;21.20;47.20;;;;;;4996559;28;91241;-90
2022/03/24 12:26:31;;;;;;;82.88;57.72;;;21.20;47.20;;;;;;4979758;28;89497;-91
2022/03/24 12:29:12;;;;;;;82.82;57.42;;;21.20;47.10;;;;;;4970033;28;90507;-90
2022/03/24 12:31:56;;;;;;;81.57;57.22;;;21.30;47.40;;;;;;4989387;28;90170;-91
2022/03/24 12:34:30;;;;;;;82.53;57.63;;;21.30;47.20;;;;;;4979311;28;92417;-91